sensor_id;sensor_type;location;lat;lon;timestamp;temperature;humidity
7806;DHT22;3948;48.138;11.530;2022-07-29T00:02:23;19.60;98.80
7806;DHT22;3948;48.138;11.530;2022-07-29T00:04:49;19.60;99.90
7806;DHT22;3948;48.138;11.530;2022-07-29T00:07:14;19.60;99.90
7806;DHT22;3948;48.138;11.530;2022-07-29T00:09:40;19.70;99.90
7806;DHT22;3948;48.138;11.530;2022-07-29T00:12:06;19.60;99.90
7806;DHT22;3948;48.138;11.530;2022-07-29T00:14:32;19.60;99.90
7806;DHT22;3948;48.138;11.530;2022-07-29T00:16:57;19.60;99.90
7806;DHT22;3948;48.138;11.530;2022-07-29T00:19:23;19.60;99.90
7806;DHT22;3948;48.138;11.530;2022-07-29T00:21:48;19.50;99.90
7806;DHT22;3948;48.138;11.530;2022-07-29T00:24:14;19.50;99.90
7806;DHT22;3948;48.138;11.530;2022-07-29T00:26:40;19.40;99.90
7806;DHT22;3948;48.138;11.530;2022-07-29T00:29:06;19.40;99.90
7806;DHT22;3948;48.138;11.530;2022-07-29T00:31:31;19.40;99.90
7806;DHT22;3948;48.138;11.530;2022-07-29T00:33:57;19.30;99.90
7806;DHT22;3948;48.138;11.530;2022-07-29T00:36:23;19.30;99.90
7806;DHT22;3948;48.138;11.530;2022-07-29T00:38:50;19.40;99.90
7806;DHT22;3948;48.138;11.530;2022-07-29T00:41:17;19.40;99.90
7806;DHT22;3948;48.138;11.530;2022-07-29T00:43:43;19.40;99.90
7806;DHT22;3948;48.138;11.530;2022-07-29T00:46:09;19.40;99.90
7806;DHT22;3948;48.138;11.530;2022-07-29T00:48:35;19.40;99.90
7806;DHT22;3948;48.138;11.530;2022-07-29T00:51:03;19.50;99.90
7806;DHT22;3948;48.138;11.530;2022-07-29T00:53:30;19.40;99.90
7806;DHT22;3948;48.138;11.530;2022-07-29T00:55:56;19.40;99.90
7806;DHT22;3948;48.138;11.530;2022-07-29T00:58:23;19.40;99.90
7806;DHT22;3948;48.138;11.530;2022-07-29T01:00:49;19.50;99.90
7806;DHT22;3948;48.138;11.530;2022-07-29T01:03:15;19.50;99.90
7806;DHT22;3948;48.138;11.530;2022-07-29T01:05:43;19.60;99.90
7806;DHT22;3948;48.138;11.530;2022-07-29T01:08:11;19.60;99.90
7806;DHT22;3948;48.138;11.530;2022-07-29T01:10:38;19.60;99.90
7806;DHT22;3948;48.138;11.530;2022-07-29T01:13:06;19.60;99.90
7806;DHT22;3948;48.138;11.530;2022-07-29T01:15:34;19.70;99.90
7806;DHT22;3948;48.138;11.530;2022-07-29T01:18:18;19.70;99.90
7806;DHT22;3948;48.138;11.530;2022-07-29T01:27:11;19.80;99.90
7806;DHT22;3948;48.138;11.530;2022-07-29T01:29:55;19.80;99.90
7806;DHT22;3948;48.138;11.530;2022-07-29T01:32:27;19.80;99.90
7806;DHT22;3948;48.138;11.530;2022-07-29T01:35:31;19.80;99.90
7806;DHT22;3948;48.138;11.530;2022-07-29T01:38:12;19.70;99.90
7806;DHT22;3948;48.138;11.530;2022-07-29T01:40:58;19.70;99.90
7806;DHT22;3948;48.138;11.530;2022-07-29T01:43:35;19.70;99.90
7806;DHT22;3948;48.138;11.530;2022-07-29T01:46:05;19.70;99.90
7806;DHT22;3948;48.138;11.530;2022-07-29T01:51:28;19.80;99.90
7806;DHT22;3948;48.138;11.530;2022-07-29T01:54:04;19.80;99.90
7806;DHT22;3948;48.138;11.530;2022-07-29T01:56:32;19.80;99.90
7806;DHT22;3948;48.138;11.530;2022-07-29T01:59:01;19.80;99.90
7806;DHT22;3948;48.138;11.530;2022-07-29T02:01:30;19.70;99.90
7806;DHT22;3948;48.138;11.530;2022-07-29T02:03:57;19.70;99.90
7806;DHT22;3948;48.138;11.530;2022-07-29T02:06:24;19.70;99.90
7806;DHT22;3948;48.138;11.530;2022-07-29T02:08:52;19.70;99.90
7806;DHT22;3948;48.138;11.530;2022-07-29T02:11:19;19.70;99.90
7806;DHT22;3948;48.138;11.530;2022-07-29T02:13:45;19.60;99.90
7806;DHT22;3948;48.138;11.530;2022-07-29T02:16:12;19.60;99.90
7806;DHT22;3948;48.138;11.530;2022-07-29T02:18:41;19.60;99.90
7806;DHT22;3948;48.138;11.530;2022-07-29T02:21:07;19.60;99.90
7806;DHT22;3948;48.138;11.530;2022-07-29T02:23:35;19.60;99.90
7806;DHT22;3948;48.138;11.530;2022-07-29T02:26:03;19.50;99.90
7806;DHT22;3948;48.138;11.530;2022-07-29T02:28:29;19.50;99.90
7806;DHT22;3948;48.138;11.530;2022-07-29T02:30:59;19.50;99.90
7806;DHT22;3948;48.138;11.530;2022-07-29T02:33:26;19.50;99.90
7806;DHT22;3948;48.138;11.530;2022-07-29T02:35:54;19.40;99.90
7806;DHT22;3948;48.138;11.530;2022-07-29T02:38:22;19.40;99.90
7806;DHT22;3948;48.138;11.530;2022-07-29T02:41:28;19.40;99.90
7806;DHT22;3948;48.138;11.530;2022-07-29T02:43:57;19.30;99.90
7806;DHT22;3948;48.138;11.530;2022-07-29T02:46:29;19.20;99.90
7806;DHT22;3948;48.138;11.530;2022-07-29T02:51:51;19.20;99.90
7806;DHT22;3948;48.138;11.530;2022-07-29T02:54:56;19.10;99.90
7806;DHT22;3948;48.138;11.530;2022-07-29T02:57:30;19.00;99.90
7806;DHT22;3948;48.138;11.530;2022-07-29T02:59:58;18.90;99.90
7806;DHT22;3948;48.138;11.530;2022-07-29T03:02:42;18.90;99.90
7806;DHT22;3948;48.138;11.530;2022-07-29T03:05:14;18.70;99.90
7806;DHT22;3948;48.138;11.530;2022-07-29T03:07:43;18.70;99.90
7806;DHT22;3948;48.138;11.530;2022-07-29T03:10:09;18.60;99.90
7806;DHT22;3948;48.138;11.530;2022-07-29T03:12:35;18.50;99.90
7806;DHT22;3948;48.138;11.530;2022-07-29T03:15:02;18.50;99.90
7806;DHT22;3948;48.138;11.530;2022-07-29T03:17:28;18.40;99.90
7806;DHT22;3948;48.138;11.530;2022-07-29T03:19:55;18.40;99.90
7806;DHT22;3948;48.138;11.530;2022-07-29T03:22:21;18.30;99.90
7806;DHT22;3948;48.138;11.530;2022-07-29T03:24:46;18.30;99.90
7806;DHT22;3948;48.138;11.530;2022-07-29T03:27:12;18.20;99.90
7806;DHT22;3948;48.138;11.530;2022-07-29T03:29:38;18.20;99.90
7806;DHT22;3948;48.138;11.530;2022-07-29T03:32:05;18.20;99.90
7806;DHT22;3948;48.138;11.530;2022-07-29T03:34:31;18.20;99.90
7806;DHT22;3948;48.138;11.530;2022-07-29T03:36:56;18.20;99.90
7806;DHT22;3948;48.138;11.530;2022-07-29T03:39:25;18.20;99.90
7806;DHT22;3948;48.138;11.530;2022-07-29T03:41:54;18.20;99.90
7806;DHT22;3948;48.138;11.530;2022-07-29T03:44:21;18.10;99.90
7806;DHT22;3948;48.138;11.530;2022-07-29T03:46:50;18.10;99.90
7806;DHT22;3948;48.138;11.530;2022-07-29T03:49:16;18.00;99.90
7806;DHT22;3948;48.138;11.530;2022-07-29T03:51:44;18.00;99.90
7806;DHT22;3948;48.138;11.530;2022-07-29T03:54:10;18.10;99.90
7806;DHT22;3948;48.138;11.530;2022-07-29T03:56:39;18.00;99.90
7806;DHT22;3948;48.138;11.530;2022-07-29T03:59:06;18.10;99.90
7806;DHT22;3948;48.138;11.530;2022-07-29T04:01:33;18.10;99.90
7806;DHT22;3948;48.138;11.530;2022-07-29T04:04:01;18.20;99.90
7806;DHT22;3948;48.138;11.530;2022-07-29T04:06:27;18.20;99.90
7806;DHT22;3948;48.138;11.530;2022-07-29T04:08:52;18.20;99.90
7806;DHT22;3948;48.138;11.530;2022-07-29T04:11:18;18.10;99.90
7806;DHT22;3948;48.138;11.530;2022-07-29T04:13:44;18.10;99.90
7806;DHT22;3948;48.138;11.530;2022-07-29T04:16:10;18.20;99.90
7806;DHT22;3948;48.138;11.530;2022-07-29T04:18:36;18.20;99.90
7806;DHT22;3948;48.138;11.530;2022-07-29T04:21:01;18.20;99.90
7806;DHT22;3948;48.138;11.530;2022-07-29T04:23:32;18.30;99.90
7806;DHT22;3948;48.138;11.530;2022-07-29T04:25:58;18.30;99.90
7806;DHT22;3948;48.138;11.530;2022-07-29T04:28:26;18.40;99.90
7806;DHT22;3948;48.138;11.530;2022-07-29T04:30:51;18.50;99.90
7806;DHT22;3948;48.138;11.530;2022-07-29T04:33:17;18.70;99.90
7806;DHT22;3948;48.138;11.530;2022-07-29T04:35:43;18.90;99.90
7806;DHT22;3948;48.138;11.530;2022-07-29T04:38:08;19.10;99.90
7806;DHT22;3948;48.138;11.530;2022-07-29T04:40:34;19.30;99.90
7806;DHT22;3948;48.138;11.530;2022-07-29T04:43:00;19.50;99.90
7806;DHT22;3948;48.138;11.530;2022-07-29T04:45:27;19.70;99.90
7806;DHT22;3948;48.138;11.530;2022-07-29T04:47:54;19.90;99.90
7806;DHT22;3948;48.138;11.530;2022-07-29T04:50:20;20.10;99.90
7806;DHT22;3948;48.138;11.530;2022-07-29T04:52:45;20.20;99.90
7806;DHT22;3948;48.138;11.530;2022-07-29T04:55:11;20.40;99.90
7806;DHT22;3948;48.138;11.530;2022-07-29T04:57:37;20.50;99.90
7806;DHT22;3948;48.138;11.530;2022-07-29T05:00:04;20.60;99.90
7806;DHT22;3948;48.138;11.530;2022-07-29T05:02:30;20.70;99.90
7806;DHT22;3948;48.138;11.530;2022-07-29T05:04:55;20.70;99.90
7806;DHT22;3948;48.138;11.530;2022-07-29T05:07:21;20.70;99.90
7806;DHT22;3948;48.138;11.530;2022-07-29T05:09:47;20.60;99.90
7806;DHT22;3948;48.138;11.530;2022-07-29T05:12:12;20.50;99.90
7806;DHT22;3948;48.138;11.530;2022-07-29T05:14:38;20.40;99.90
7806;DHT22;3948;48.138;11.530;2022-07-29T05:17:04;20.30;99.90
7806;DHT22;3948;48.138;11.530;2022-07-29T05:19:29;20.10;99.90
7806;DHT22;3948;48.138;11.530;2022-07-29T05:21:55;20.10;99.90
7806;DHT22;3948;48.138;11.530;2022-07-29T05:24:21;19.90;99.90
7806;DHT22;3948;48.138;11.530;2022-07-29T05:26:46;19.90;99.90
7806;DHT22;3948;48.138;11.530;2022-07-29T05:29:12;19.90;99.90
7806;DHT22;3948;48.138;11.530;2022-07-29T05:31:37;20.00;99.90
7806;DHT22;3948;48.138;11.530;2022-07-29T05:34:03;20.10;99.90
7806;DHT22;3948;48.138;11.530;2022-07-29T05:36:29;20.00;99.90
7806;DHT22;3948;48.138;11.530;2022-07-29T05:38:54;20.20;99.90
7806;DHT22;3948;48.138;11.530;2022-07-29T05:41:20;20.30;99.90
7806;DHT22;3948;48.138;11.530;2022-07-29T05:43:46;20.30;99.90
7806;DHT22;3948;48.138;11.530;2022-07-29T05:46:12;20.40;99.90
7806;DHT22;3948;48.138;11.530;2022-07-29T05:48:39;20.40;99.90
7806;DHT22;3948;48.138;11.530;2022-07-29T05:51:05;20.40;99.90
7806;DHT22;3948;48.138;11.530;2022-07-29T05:53:30;20.40;99.90
7806;DHT22;3948;48.138;11.530;2022-07-29T05:55:56;20.40;99.90
7806;DHT22;3948;48.138;11.530;2022-07-29T05:58:22;20.40;99.90
7806;DHT22;3948;48.138;11.530;2022-07-29T06:00:47;20.50;99.90
7806;DHT22;3948;48.138;11.530;2022-07-29T06:03:13;20.60;99.90
7806;DHT22;3948;48.138;11.530;2022-07-29T06:05:39;20.70;99.90
7806;DHT22;3948;48.138;11.530;2022-07-29T06:08:05;20.80;99.90
7806;DHT22;3948;48.138;11.530;2022-07-29T06:10:37;21.00;99.90
7806;DHT22;3948;48.138;11.530;2022-07-29T06:13:03;21.10;99.90
7806;DHT22;3948;48.138;11.530;2022-07-29T06:15:28;21.10;99.90
7806;DHT22;3948;48.138;11.530;2022-07-29T06:17:54;21.00;99.90
7806;DHT22;3948;48.138;11.530;2022-07-29T06:20:20;21.00;99.90
7806;DHT22;3948;48.138;11.530;2022-07-29T06:22:45;21.00;99.90
7806;DHT22;3948;48.138;11.530;2022-07-29T06:25:11;21.10;99.90
7806;DHT22;3948;48.138;11.530;2022-07-29T06:27:37;21.10;99.90
7806;DHT22;3948;48.138;11.530;2022-07-29T06:30:03;21.20;99.90
7806;DHT22;3948;48.138;11.530;2022-07-29T06:32:32;21.30;99.90
7806;DHT22;3948;48.138;11.530;2022-07-29T06:34:58;21.40;99.90
7806;DHT22;3948;48.138;11.530;2022-07-29T06:37:23;21.50;99.90
7806;DHT22;3948;48.138;11.530;2022-07-29T06:39:49;21.60;99.90
7806;DHT22;3948;48.138;11.530;2022-07-29T06:42:35;21.50;99.90
7806;DHT22;3948;48.138;11.530;2022-07-29T06:45:00;21.60;99.90
7806;DHT22;3948;48.138;11.530;2022-07-29T06:47:26;21.60;99.90
7806;DHT22;3948;48.138;11.530;2022-07-29T06:49:52;21.70;99.90
7806;DHT22;3948;48.138;11.530;2022-07-29T06:52:18;21.80;99.90
7806;DHT22;3948;48.138;11.530;2022-07-29T06:54:43;21.80;99.90
7806;DHT22;3948;48.138;11.530;2022-07-29T06:57:13;21.80;99.90
7806;DHT22;3948;48.138;11.530;2022-07-29T06:59:39;21.90;99.90
7806;DHT22;3948;48.138;11.530;2022-07-29T07:02:05;22.10;99.90
7806;DHT22;3948;48.138;11.530;2022-07-29T07:04:30;22.20;99.90
7806;DHT22;3948;48.138;11.530;2022-07-29T07:06:57;22.20;99.90
7806;DHT22;3948;48.138;11.530;2022-07-29T07:09:23;22.30;99.90
7806;DHT22;3948;48.138;11.530;2022-07-29T07:11:48;22.40;99.90
7806;DHT22;3948;48.138;11.530;2022-07-29T07:14:14;22.60;99.90
7806;DHT22;3948;48.138;11.530;2022-07-29T07:16:40;22.80;99.90
7806;DHT22;3948;48.138;11.530;2022-07-29T07:19:05;23.00;99.90
7806;DHT22;3948;48.138;11.530;2022-07-29T07:21:32;23.20;99.90
7806;DHT22;3948;48.138;11.530;2022-07-29T07:23:59;23.40;99.90
7806;DHT22;3948;48.138;11.530;2022-07-29T07:26:25;23.40;99.90
7806;DHT22;3948;48.138;11.530;2022-07-29T07:28:51;23.50;99.70
7806;DHT22;3948;48.138;11.530;2022-07-29T07:31:17;23.60;99.60
7806;DHT22;3948;48.138;11.530;2022-07-29T07:33:42;23.70;98.70
7806;DHT22;3948;48.138;11.530;2022-07-29T07:36:10;24.00;98.60
7806;DHT22;3948;48.138;11.530;2022-07-29T07:38:36;24.20;97.90
7806;DHT22;3948;48.138;11.530;2022-07-29T07:41:02;24.70;96.90
7806;DHT22;3948;48.138;11.530;2022-07-29T07:43:28;25.30;94.40
7806;DHT22;3948;48.138;11.530;2022-07-29T07:45:54;25.60;93.30
7806;DHT22;3948;48.138;11.530;2022-07-29T07:48:20;26.00;92.40
7806;DHT22;3948;48.138;11.530;2022-07-29T07:50:46;26.50;90.80
7806;DHT22;3948;48.138;11.530;2022-07-29T07:53:11;27.50;90.00
7806;DHT22;3948;48.138;11.530;2022-07-29T07:55:41;28.90;83.80
7806;DHT22;3948;48.138;11.530;2022-07-29T07:58:08;30.80;74.50
7806;DHT22;3948;48.138;11.530;2022-07-29T08:00:33;32.30;64.60
7806;DHT22;3948;48.138;11.530;2022-07-29T08:02:59;32.30;59.30
7806;DHT22;3948;48.138;11.530;2022-07-29T08:05:25;33.40;54.90
7806;DHT22;3948;48.138;11.530;2022-07-29T08:07:51;33.70;51.90
7806;DHT22;3948;48.138;11.530;2022-07-29T08:10:18;35.80;48.60
7806;DHT22;3948;48.138;11.530;2022-07-29T08:13:07;37.50;42.70
7806;DHT22;3948;48.138;11.530;2022-07-29T08:15:34;39.10;37.60
7806;DHT22;3948;48.138;11.530;2022-07-29T08:17:59;39.00;35.30
7806;DHT22;3948;48.138;11.530;2022-07-29T08:20:25;39.90;34.20
7806;DHT22;3948;48.138;11.530;2022-07-29T08:22:52;40.00;32.70
7806;DHT22;3948;48.138;11.530;2022-07-29T08:25:19;40.90;31.70
7806;DHT22;3948;48.138;11.530;2022-07-29T08:27:46;41.50;29.80
7806;DHT22;3948;48.138;11.530;2022-07-29T08:30:14;39.80;30.00
7806;DHT22;3948;48.138;11.530;2022-07-29T08:32:39;39.20;31.80
7806;DHT22;3948;48.138;11.530;2022-07-29T08:35:06;40.20;31.10
7806;DHT22;3948;48.138;11.530;2022-07-29T08:37:31;41.60;30.00
7806;DHT22;3948;48.138;11.530;2022-07-29T08:39:57;43.20;28.10
7806;DHT22;3948;48.138;11.530;2022-07-29T08:42:22;43.60;27.50
7806;DHT22;3948;48.138;11.530;2022-07-29T08:44:48;43.10;26.40
7806;DHT22;3948;48.138;11.530;2022-07-29T08:47:16;41.80;27.30
7806;DHT22;3948;48.138;11.530;2022-07-29T08:49:42;39.30;29.00
7806;DHT22;3948;48.138;11.530;2022-07-29T08:52:11;38.10;31.90
7806;DHT22;3948;48.138;11.530;2022-07-29T08:54:38;38.10;31.70
7806;DHT22;3948;48.138;11.530;2022-07-29T08:57:04;37.40;32.00
7806;DHT22;3948;48.138;11.530;2022-07-29T08:59:30;36.60;33.30
7806;DHT22;3948;48.138;11.530;2022-07-29T09:01:58;35.70;34.70
7806;DHT22;3948;48.138;11.530;2022-07-29T09:04:29;35.40;35.20
7806;DHT22;3948;48.138;11.530;2022-07-29T09:06:57;35.30;35.70
7806;DHT22;3948;48.138;11.530;2022-07-29T09:09:25;36.10;35.00
7806;DHT22;3948;48.138;11.530;2022-07-29T09:11:52;37.90;33.30
7806;DHT22;3948;48.138;11.530;2022-07-29T09:14:18;39.10;31.60
7806;DHT22;3948;48.138;11.530;2022-07-29T09:16:55;39.70;31.00
7806;DHT22;3948;48.138;11.530;2022-07-29T09:19:24;42.00;29.60
7806;DHT22;3948;48.138;11.530;2022-07-29T09:21:51;43.80;27.60
7806;DHT22;3948;48.138;11.530;2022-07-29T09:24:46;43.70;26.60
7806;DHT22;3948;48.138;11.530;2022-07-29T09:27:20;42.60;27.60
7806;DHT22;3948;48.138;11.530;2022-07-29T09:29:46;41.90;27.80
7806;DHT22;3948;48.138;11.530;2022-07-29T09:32:12;41.20;28.50
7806;DHT22;3948;48.138;11.530;2022-07-29T09:34:38;40.80;29.00
7806;DHT22;3948;48.138;11.530;2022-07-29T09:37:04;41.40;28.40
7806;DHT22;3948;48.138;11.530;2022-07-29T09:39:36;41.20;28.50
7806;DHT22;3948;48.138;11.530;2022-07-29T09:42:05;41.00;28.70
7806;DHT22;3948;48.138;11.530;2022-07-29T09:44:51;40.40;28.80
7806;DHT22;3948;48.138;11.530;2022-07-29T09:47:18;38.70;30.00
7806;DHT22;3948;48.138;11.530;2022-07-29T09:49:59;37.10;32.30
7806;DHT22;3948;48.138;11.530;2022-07-29T09:52:29;35.60;34.50
7806;DHT22;3948;48.138;11.530;2022-07-29T09:55:09;34.70;36.30
7806;DHT22;3948;48.138;11.530;2022-07-29T09:57:35;33.40;38.20
7806;DHT22;3948;48.138;11.530;2022-07-29T10:00:05;33.30;39.00
7806;DHT22;3948;48.138;11.530;2022-07-29T10:02:34;32.90;39.50
7806;DHT22;3948;48.138;11.530;2022-07-29T10:05:04;33.80;39.70
7806;DHT22;3948;48.138;11.530;2022-07-29T10:10:22;32.50;39.20
7806;DHT22;3948;48.138;11.530;2022-07-29T10:12:50;31.80;41.60
7806;DHT22;3948;48.138;11.530;2022-07-29T10:15:16;31.40;41.90
7806;DHT22;3948;48.138;11.530;2022-07-29T10:17:43;31.20;43.20
7806;DHT22;3948;48.138;11.530;2022-07-29T10:20:09;31.80;41.80
7806;DHT22;3948;48.138;11.530;2022-07-29T10:22:36;34.50;39.70
7806;DHT22;3948;48.138;11.530;2022-07-29T10:25:02;37.00;34.70
7806;DHT22;3948;48.138;11.530;2022-07-29T10:27:28;38.40;33.10
7806;DHT22;3948;48.138;11.530;2022-07-29T10:29:54;38.40;31.80
7806;DHT22;3948;48.138;11.530;2022-07-29T10:43:59;32.80;39.90
7806;DHT22;3948;48.138;11.530;2022-07-29T10:46:27;33.90;39.80
7806;DHT22;3948;48.138;11.530;2022-07-29T10:57:29;39.50;29.80
7806;DHT22;3948;48.138;11.530;2022-07-29T11:05:09;39.60;31.70
7806;DHT22;3948;48.138;11.530;2022-07-29T11:07:36;41.80;29.70
7806;DHT22;3948;48.138;11.530;2022-07-29T11:22:59;48.50;23.00
7806;DHT22;3948;48.138;11.530;2022-07-29T11:25:25;48.80;22.20
7806;DHT22;3948;48.138;11.530;2022-07-29T11:27:52;48.70;22.30
7806;DHT22;3948;48.138;11.530;2022-07-29T11:30:20;47.50;22.60
7806;DHT22;3948;48.138;11.530;2022-07-29T11:32:46;44.50;24.00
7806;DHT22;3948;48.138;11.530;2022-07-29T11:35:19;42.50;25.20
7806;DHT22;3948;48.138;11.530;2022-07-29T11:38:40;41.10;26.30
7806;DHT22;3948;48.138;11.530;2022-07-29T11:46:13;41.00;27.00
7806;DHT22;3948;48.138;11.530;2022-07-29T11:48:43;40.20;27.10
7806;DHT22;3948;48.138;11.530;2022-07-29T11:51:10;38.50;28.10
7806;DHT22;3948;48.138;11.530;2022-07-29T11:53:37;36.90;30.20
7806;DHT22;3948;48.138;11.530;2022-07-29T11:56:04;36.80;30.00
7806;DHT22;3948;48.138;11.530;2022-07-29T11:58:33;36.30;30.00
7806;DHT22;3948;48.138;11.530;2022-07-29T12:01:00;36.20;30.90
7806;DHT22;3948;48.138;11.530;2022-07-29T12:03:28;36.10;31.70
7806;DHT22;3948;48.138;11.530;2022-07-29T12:05:54;36.30;31.60
7806;DHT22;3948;48.138;11.530;2022-07-29T12:08:21;36.20;31.50
7806;DHT22;3948;48.138;11.530;2022-07-29T12:10:49;36.00;32.30
7806;DHT22;3948;48.138;11.530;2022-07-29T12:13:19;35.70;33.00
7806;DHT22;3948;48.138;11.530;2022-07-29T12:15:56;36.00;32.10
7806;DHT22;3948;48.138;11.530;2022-07-29T12:18:26;35.70;33.00
7806;DHT22;3948;48.138;11.530;2022-07-29T12:21:02;34.50;33.50
7806;DHT22;3948;48.138;11.530;2022-07-29T12:23:32;34.20;34.80
7806;DHT22;3948;48.138;11.530;2022-07-29T12:25:58;34.30;34.60
7806;DHT22;3948;48.138;11.530;2022-07-29T12:28:24;34.20;34.40
7806;DHT22;3948;48.138;11.530;2022-07-29T12:30:50;34.20;34.90
7806;DHT22;3948;48.138;11.530;2022-07-29T12:35:49;34.30;34.30
7806;DHT22;3948;48.138;11.530;2022-07-29T12:38:16;34.50;35.10
7806;DHT22;3948;48.138;11.530;2022-07-29T12:40:43;35.10;34.20
7806;DHT22;3948;48.138;11.530;2022-07-29T12:43:12;35.30;34.40
7806;DHT22;3948;48.138;11.530;2022-07-29T12:45:40;35.90;33.40
7806;DHT22;3948;48.138;11.530;2022-07-29T12:48:06;35.90;33.10
7806;DHT22;3948;48.138;11.530;2022-07-29T12:50:36;36.00;32.10
7806;DHT22;3948;48.138;11.530;2022-07-29T12:53:16;35.80;32.30
7806;DHT22;3948;48.138;11.530;2022-07-29T12:55:47;34.80;33.10
7806;DHT22;3948;48.138;11.530;2022-07-29T12:58:38;34.20;34.60
7806;DHT22;3948;48.138;11.530;2022-07-29T13:01:15;33.40;35.40
7806;DHT22;3948;48.138;11.530;2022-07-29T13:06:30;32.00;37.50
7806;DHT22;3948;48.138;11.530;2022-07-29T13:11:33;30.80;39.50
7806;DHT22;3948;48.138;11.530;2022-07-29T13:13:59;30.50;40.40
7806;DHT22;3948;48.138;11.530;2022-07-29T13:16:25;30.30;40.90
7806;DHT22;3948;48.138;11.530;2022-07-29T13:19:10;30.00;41.20
7806;DHT22;3948;48.138;11.530;2022-07-29T13:21:37;29.70;42.20
7806;DHT22;3948;48.138;11.530;2022-07-29T13:24:07;30.10;43.80
7806;DHT22;3948;48.138;11.530;2022-07-29T13:26:34;29.00;43.50
7806;DHT22;3948;48.138;11.530;2022-07-29T13:28:59;28.50;44.70
7806;DHT22;3948;48.138;11.530;2022-07-29T13:31:25;28.30;45.80
7806;DHT22;3948;48.138;11.530;2022-07-29T13:33:51;28.20;46.00
7806;DHT22;3948;48.138;11.530;2022-07-29T13:36:17;28.20;46.30
7806;DHT22;3948;48.138;11.530;2022-07-29T13:38:43;28.20;45.80
7806;DHT22;3948;48.138;11.530;2022-07-29T13:41:09;28.10;46.20
7806;DHT22;3948;48.138;11.530;2022-07-29T13:43:35;28.10;46.60
7806;DHT22;3948;48.138;11.530;2022-07-29T13:46:00;28.20;46.70
7806;DHT22;3948;48.138;11.530;2022-07-29T13:48:26;28.30;46.30
7806;DHT22;3948;48.138;11.530;2022-07-29T13:50:52;28.10;46.70
7806;DHT22;3948;48.138;11.530;2022-07-29T13:53:18;28.20;46.90
7806;DHT22;3948;48.138;11.530;2022-07-29T13:55:44;28.40;47.10
7806;DHT22;3948;48.138;11.530;2022-07-29T13:58:09;28.50;47.00
7806;DHT22;3948;48.138;11.530;2022-07-29T14:00:35;28.90;46.50
7806;DHT22;3948;48.138;11.530;2022-07-29T14:03:00;29.40;45.70
7806;DHT22;3948;48.138;11.530;2022-07-29T14:05:26;30.00;44.40
7806;DHT22;3948;48.138;11.530;2022-07-29T14:07:52;30.40;42.90
7806;DHT22;3948;48.138;11.530;2022-07-29T14:10:18;30.50;42.90
7806;DHT22;3948;48.138;11.530;2022-07-29T14:12:43;30.40;42.60
7806;DHT22;3948;48.138;11.530;2022-07-29T14:15:09;30.20;43.30
7806;DHT22;3948;48.138;11.530;2022-07-29T14:17:35;30.00;43.40
7806;DHT22;3948;48.138;11.530;2022-07-29T14:20:01;30.00;43.60
7806;DHT22;3948;48.138;11.530;2022-07-29T14:22:26;30.00;43.60
7806;DHT22;3948;48.138;11.530;2022-07-29T14:24:52;30.20;42.70
7806;DHT22;3948;48.138;11.530;2022-07-29T14:27:18;30.30;42.50
7806;DHT22;3948;48.138;11.530;2022-07-29T14:29:43;30.20;42.60
7806;DHT22;3948;48.138;11.530;2022-07-29T14:32:09;29.90;43.20
7806;DHT22;3948;48.138;11.530;2022-07-29T14:34:37;29.70;43.80
7806;DHT22;3948;48.138;11.530;2022-07-29T14:37:03;29.80;43.50
7806;DHT22;3948;48.138;11.530;2022-07-29T14:39:30;29.90;43.20
7806;DHT22;3948;48.138;11.530;2022-07-29T14:41:56;30.00;44.00
7806;DHT22;3948;48.138;11.530;2022-07-29T14:44:22;30.00;42.80
7806;DHT22;3948;48.138;11.530;2022-07-29T14:46:49;29.70;43.70
7806;DHT22;3948;48.138;11.530;2022-07-29T14:49:15;29.70;43.90
7806;DHT22;3948;48.138;11.530;2022-07-29T14:51:43;29.70;43.90
7806;DHT22;3948;48.138;11.530;2022-07-29T14:54:09;29.60;44.00
7806;DHT22;3948;48.138;11.530;2022-07-29T14:56:35;29.20;45.00
7806;DHT22;3948;48.138;11.530;2022-07-29T14:59:01;28.40;46.10
7806;DHT22;3948;48.138;11.530;2022-07-29T15:01:26;27.90;48.00
7806;DHT22;3948;48.138;11.530;2022-07-29T15:03:52;27.90;48.20
7806;DHT22;3948;48.138;11.530;2022-07-29T15:06:18;27.50;48.00
7806;DHT22;3948;48.138;11.530;2022-07-29T15:08:44;27.30;48.30
7806;DHT22;3948;48.138;11.530;2022-07-29T15:11:10;27.20;48.90
7806;DHT22;3948;48.138;11.530;2022-07-29T15:13:35;27.20;49.00
7806;DHT22;3948;48.138;11.530;2022-07-29T15:16:01;27.00;49.60
7806;DHT22;3948;48.138;11.530;2022-07-29T15:18:27;26.90;49.90
7806;DHT22;3948;48.138;11.530;2022-07-29T15:20:53;26.80;49.90
7806;DHT22;3948;48.138;11.530;2022-07-29T15:23:18;26.70;50.50
7806;DHT22;3948;48.138;11.530;2022-07-29T15:25:44;26.60;50.90
7806;DHT22;3948;48.138;11.530;2022-07-29T15:28:10;26.70;51.20
7806;DHT22;3948;48.138;11.530;2022-07-29T15:30:36;26.90;51.10
7806;DHT22;3948;48.138;11.530;2022-07-29T15:33:09;27.00;51.40
7806;DHT22;3948;48.138;11.530;2022-07-29T15:35:38;27.10;51.60
7806;DHT22;3948;48.138;11.530;2022-07-29T15:38:04;27.10;52.10
7806;DHT22;3948;48.138;11.530;2022-07-29T15:40:30;27.00;52.70
7806;DHT22;3948;48.138;11.530;2022-07-29T15:42:56;26.90;53.00
7806;DHT22;3948;48.138;11.530;2022-07-29T15:45:22;26.90;53.10
7806;DHT22;3948;48.138;11.530;2022-07-29T15:47:48;26.90;53.20
7806;DHT22;3948;48.138;11.530;2022-07-29T15:50:14;26.90;53.60
7806;DHT22;3948;48.138;11.530;2022-07-29T15:52:42;26.70;53.90
7806;DHT22;3948;48.138;11.530;2022-07-29T15:55:08;26.70;54.20
7806;DHT22;3948;48.138;11.530;2022-07-29T15:57:37;26.60;54.50
7806;DHT22;3948;48.138;11.530;2022-07-29T16:00:04;26.40;54.80
7806;DHT22;3948;48.138;11.530;2022-07-29T16:02:30;26.20;55.40
7806;DHT22;3948;48.138;11.530;2022-07-29T16:04:56;26.00;55.90
7806;DHT22;3948;48.138;11.530;2022-07-29T16:07:21;25.90;56.20
7806;DHT22;3948;48.138;11.530;2022-07-29T16:09:47;25.80;56.40
7806;DHT22;3948;48.138;11.530;2022-07-29T16:12:13;25.70;56.70
7806;DHT22;3948;48.138;11.530;2022-07-29T16:14:38;25.50;57.10
7806;DHT22;3948;48.138;11.530;2022-07-29T16:17:04;25.40;57.70
7806;DHT22;3948;48.138;11.530;2022-07-29T16:19:30;25.30;58.50
7806;DHT22;3948;48.138;11.530;2022-07-29T16:21:56;25.10;58.80
7806;DHT22;3948;48.138;11.530;2022-07-29T16:24:22;24.90;59.00
7806;DHT22;3948;48.138;11.530;2022-07-29T16:26:49;24.80;59.80
7806;DHT22;3948;48.138;11.530;2022-07-29T16:29:16;24.70;60.20
7806;DHT22;3948;48.138;11.530;2022-07-29T16:31:43;24.80;60.50
7806;DHT22;3948;48.138;11.530;2022-07-29T16:34:09;24.80;60.60
7806;DHT22;3948;48.138;11.530;2022-07-29T16:36:34;24.70;61.00
7806;DHT22;3948;48.138;11.530;2022-07-29T16:39:00;24.60;60.90
7806;DHT22;3948;48.138;11.530;2022-07-29T16:41:26;24.50;61.50
7806;DHT22;3948;48.138;11.530;2022-07-29T16:43:53;24.50;62.60
7806;DHT22;3948;48.138;11.530;2022-07-29T16:46:19;24.50;62.30
7806;DHT22;3948;48.138;11.530;2022-07-29T16:48:46;24.30;62.60
7806;DHT22;3948;48.138;11.530;2022-07-29T16:51:12;24.20;63.20
7806;DHT22;3948;48.138;11.530;2022-07-29T16:53:38;24.10;64.00
7806;DHT22;3948;48.138;11.530;2022-07-29T16:56:03;24.10;64.40